Time;durP1;ratioP1;P1;durP2;ratioP2;P2;SDS_P1;SDS_P2;PMS_P1;PMS_P2;Temp;Humidity;BMP_temperature;BMP_pressure;BME280_temperature;BME280_humidity;BME280_pressure;Samples;Min_cycle;Max_cycle;Signal;HPM_P1;HPM_P2
2022/03/12 00:01:05;;;;;;;20.20;8.20;;;;;;;4.59;43.96;99358.63;5052152;28;20055;-53
2022/03/12 00:03:32;;;;;;;15.25;8.05;;;;;;;4.63;42.10;99361.72;5054597;28;20029;-52
2022/03/12 00:05:59;;;;;;;11.63;7.40;;;;;;;4.61;42.05;99359.25;5057863;28;20043;-52
2022/03/12 00:09:03;;;;;;;20.70;8.75;;;;;;;4.74;42.99;99363.75;5056412;28;20056;-54
2022/03/12 00:11:23;;;;;;;19.10;8.45;;;;;;;4.78;41.24;99349.06;5063986;28;20040;-53
2022/03/12 00:13:49;;;;;;;17.48;8.98;;;;;;;4.93;41.11;99356.84;5059552;28;20067;-54
2022/03/12 00:16:22;;;;;;;18.10;8.30;;;;;;;5.00;41.00;99362.19;5051463;28;20048;-52
2022/03/12 00:18:52;;;;;;;11.93;7.38;;;;;;;4.94;41.32;99364.63;5062642;28;20145;-50
2022/03/12 00:21:17;;;;;;;14.73;7.70;;;;;;;5.21;39.35;99363.81;5059148;28;20025;-51
2022/03/12 00:23:47;;;;;;;12.23;7.32;;;;;;;5.78;38.02;99363.16;5058764;28;20800;-58
2022/03/12 00:26:14;;;;;;;12.63;7.23;;;;;;;5.86;37.32;99364.78;5054348;28;20060;-53
2022/03/12 00:28:41;;;;;;;14.27;6.80;;;;;;;5.90;37.64;99368.66;5052405;28;20021;-53
2022/03/12 00:31:07;;;;;;;12.80;6.78;;;;;;;5.98;37.73;99370.31;5051031;28;20017;-51
2022/03/12 00:33:32;;;;;;;14.48;6.65;;;;;;;5.90;37.75;99365.19;5056845;28;20477;-52
2022/03/12 00:35:58;;;;;;;11.77;6.75;;;;;;;5.54;39.13;99377.94;5061292;28;20028;-52
2022/03/12 00:38:23;;;;;;;12.00;6.50;;;;;;;5.31;40.06;99365.03;5057663;28;20047;-50
2022/03/12 00:40:49;;;;;;;12.00;6.97;;;;;;;5.23;40.34;99365.25;5059330;28;20032;-51
2022/03/12 00:43:15;;;;;;;14.07;6.72;;;;;;;5.07;41.36;99363.00;5057553;28;20047;-53
2022/03/12 00:45:40;;;;;;;12.15;7.25;;;;;;;5.04;40.58;99366.06;5056726;28;20033;-52
2022/03/12 00:48:06;;;;;;;23.02;11.30;;;;;;;4.83;43.71;99364.41;5054398;28;20039;-50
2022/03/12 00:50:32;;;;;;;27.45;14.38;;;;;;;4.68;43.44;99365.38;5054553;28;20033;-52
2022/03/12 00:52:57;;;;;;;19.83;9.35;;;;;;;4.64;45.23;99361.53;5056072;28;20052;-50
2022/03/12 00:55:23;;;;;;;17.75;8.70;;;;;;;4.67;46.53;99352.34;5052769;28;20180;-50
2022/03/12 00:57:48;;;;;;;13.07;8.10;;;;;;;4.70;45.61;99357.22;5051000;28;20546;-52
2022/03/12 01:00:18;;;;;;;18.77;10.27;;;;;;;4.66;45.42;99374.56;5054171;28;20356;-50
2022/03/12 01:02:43;;;;;;;20.65;10.27;;;;;;;4.57;47.53;99363.34;5065097;28;20037;-50
2022/03/12 01:05:10;;;;;;;17.63;9.15;;;;;;;4.60;49.64;99356.81;5056498;28;20032;-51
2022/03/12 01:07:35;;;;;;;17.50;8.98;;;;;;;4.58;45.51;99362.31;5055101;28;20103;-53
2022/03/12 01:10:01;;;;;;;18.55;9.13;;;;;;;4.62;47.21;99357.41;5051248;28;20463;-52
2022/03/12 01:12:26;;;;;;;15.75;9.23;;;;;;;4.58;44.05;99356.19;5058821;28;20074;-53
2022/03/12 01:14:52;;;;;;;18.35;8.60;;;;;;;4.48;46.66;99369.81;5050559;28;20134;-52
2022/03/12 01:17:17;;;;;;;17.60;8.57;;;;;;;4.59;44.44;99376.38;5055575;28;20033;-53
2022/03/12 01:19:43;;;;;;;15.18;8.73;;;;;;;4.38;45.00;99370.19;5057634;28;20337;-51
2022/03/12 01:22:13;;;;;;;13.98;8.18;;;;;;;4.60;45.20;99378.03;5052969;28;20055;-51
2022/03/12 01:24:40;;;;;;;17.10;9.13;;;;;;;4.41;44.99;99374.28;5058377;28;20032;-52
2022/03/12 01:27:05;;;;;;;13.88;8.23;;;;;;;4.37;45.20;99370.38;5056377;28;20048;-52
2022/03/12 01:29:31;;;;;;;14.00;7.80;;;;;;;4.41;44.40;99367.16;5055285;28;20032;-53
2022/03/12 01:31:56;;;;;;;15.45;7.40;;;;;;;4.57;43.44;99367.81;5056303;28;20044;-50
2022/03/12 01:34:21;;;;;;;13.68;7.28;;;;;;;4.60;42.99;99362.13;5050987;28;20036;-52
2022/03/12 01:36:47;;;;;;;15.00;7.28;;;;;;;4.44;44.98;99353.50;5053843;28;20104;-54
2022/03/12 01:39:12;;;;;;;14.48;8.00;;;;;;;4.75;43.00;99354.78;5058645;28;20074;-55
2022/03/12 01:41:42;;;;;;;15.10;7.93;;;;;;;5.25;42.04;99359.75;5052611;28;20391;-52
2022/03/12 01:44:07;;;;;;;13.37;7.77;;;;;;;5.33;42.18;99352.38;5053259;28;20049;-53
2022/03/12 01:46:39;;;;;;;15.95;8.15;;;;;;;5.19;42.17;99353.38;5049177;28;20388;-52
2022/03/12 01:49:09;;;;;;;16.20;8.75;;;;;;;5.37;41.49;99352.78;5050716;28;20115;-51
2022/03/12 01:51:37;;;;;;;15.90;7.50;;;;;;;5.36;41.80;99362.59;5053387;28;20047;-54
2022/03/12 01:54:03;;;;;;;14.43;7.80;;;;;;;5.20;43.03;99363.00;5049729;28;20480;-51
2022/03/12 01:56:29;;;;;;;14.60;8.15;;;;;;;4.97;43.34;99353.59;5049270;28;20508;-50
2022/03/12 01:58:54;;;;;;;14.48;8.40;;;;;;;4.76;45.06;99357.22;5060613;28;20024;-51
2022/03/12 02:01:20;;;;;;;18.85;8.73;;;;;;;4.36;48.51;99361.63;5051247;28;20032;-54
2022/03/12 02:03:46;;;;;;;15.00;8.10;;;;;;;4.01;49.78;99364.31;5057685;28;20048;-52
2022/03/12 02:06:21;;;;;;;22.42;9.02;;;;;;;3.94;50.23;99367.97;5049348;28;20025;-51
2022/03/12 02:08:48;;;;;;;21.27;10.77;;;;;;;3.95;49.21;99364.31;5055411;28;20467;-54
2022/03/12 02:11:14;;;;;;;17.85;9.75;;;;;;;3.92;50.06;99354.06;5051810;28;20040;-51
2022/03/12 02:13:40;;;;;;;19.63;9.68;;;;;;;3.99;48.78;99349.63;5058569;28;20051;-53
2022/03/12 02:16:07;;;;;;;16.27;9.35;;;;;;;4.58;46.72;99357.00;5058143;28;20163;-51
2022/03/12 02:18:32;;;;;;;16.45;9.07;;;;;;;4.58;46.26;99356.19;5056475;28;20032;-53
2022/03/12 02:20:58;;;;;;;18.77;8.88;;;;;;;4.96;44.65;99354.59;5049075;28;20063;-53
2022/03/12 02:23:23;;;;;;;14.27;7.95;;;;;;;5.43;44.53;99356.47;5054513;28;20364;-53
2022/03/12 02:25:49;;;;;;;13.52;7.15;;;;;;;5.70;43.32;99358.06;5049237;28;20040;-53
2022/03/12 02:28:18;;;;;;;15.23;7.82;;;;;;;5.99;42.26;99355.97;5056340;28;20028;-52
2022/03/12 02:30:51;;;;;;;14.45;7.95;;;;;;;6.03;42.12;99366.00;5052111;28;20032;-54
2022/03/12 02:33:24;;;;;;;14.18;8.30;;;;;;;6.12;42.46;99369.25;5055429;28;20017;-52
2022/03/12 02:35:51;;;;;;;17.30;8.60;;;;;;;6.14;42.08;99372.53;5049123;28;20029;-51
2022/03/12 02:38:19;;;;;;;11.95;7.50;;;;;;;6.14;42.37;99375.19;5055704;28;20465;-52
2022/03/12 02:40:46;;;;;;;18.00;8.10;;;;;;;6.02;42.60;99376.84;5057930;28;20204;-52
2022/03/12 02:43:13;;;;;;;14.32;7.50;;;;;;;6.17;43.07;99373.94;5054021;28;20036;-51
2022/03/12 02:45:39;;;;;;;15.50;8.57;;;;;;;6.06;42.62;99378.06;5049012;28;20387;-50
2022/03/12 02:48:08;;;;;;;19.13;8.38;;;;;;;6.12;42.87;99385.22;5049068;28;20727;-54
2022/03/12 02:50:33;;;;;;;17.95;8.57;;;;;;;6.19;42.74;99382.50;5059680;28;20036;-51
2022/03/12 02:52:58;;;;;;;15.60;8.32;;;;;;;6.20;43.32;99387.63;5052324;28;20502;-53
2022/03/12 02:55:25;;;;;;;16.27;8.80;;;;;;;6.23;43.80;99389.06;5055016;28;20494;-52
2022/03/12 02:57:51;;;;;;;15.35;8.02;;;;;;;6.30;43.03;99397.03;5057905;28;20529;-54
2022/03/12 03:00:17;;;;;;;18.05;7.80;;;;;;;6.36;42.73;99388.19;5053203;28;20120;-52
2022/03/12 03:02:47;;;;;;;17.70;8.73;;;;;;;6.29;43.37;99392.72;5053961;28;20031;-54
2022/03/12 03:05:44;;;;;;;14.95;7.85;;;;;;;6.31;43.28;99394.16;5049196;28;20033;-51
2022/03/12 03:08:09;;;;;;;19.63;9.82;;;;;;;6.33;43.19;99394.75;5053085;28;20049;-52
2022/03/12 03:10:39;;;;;;;14.52;8.27;;;;;;;6.32;43.86;99402.97;5055215;28;20033;-54
2022/03/12 03:13:16;;;;;;;13.98;8.32;;;;;;;6.37;43.63;99403.16;5054210;28;20289;-51
2022/03/12 03:15:46;;;;;;;14.18;8.02;;;;;;;6.36;43.57;99404.16;5048596;28;20290;-51
2022/03/12 03:18:13;;;;;;;18.55;11.50;;;;;;;6.43;43.87;99399.63;5052494;28;20025;-53
2022/03/12 03:20:39;;;;;;;16.92;9.70;;;;;;;6.44;44.63;99411.91;5047868;28;21307;-51
2022/03/12 03:23:06;;;;;;;17.27;8.63;;;;;;;6.34;44.89;99403.56;5032339;28;20041;-51
2022/03/12 03:25:32;;;;;;;18.15;8.55;;;;;;;6.35;45.44;99408.69;5047692;28;20029;-52
2022/03/12 03:27:57;;;;;;;16.00;8.05;;;;;;;6.26;45.70;99416.09;5048428;28;20060;-54
2022/03/12 03:30:22;;;;;;;19.75;8.23;;;;;;;6.28;46.48;99409.72;5048610;28;20032;-53
2022/03/12 03:32:48;;;;;;;15.30;8.65;;;;;;;6.30;47.67;99413.00;5058870;28;20383;-53
2022/03/12 03:35:13;;;;;;;17.65;8.30;;;;;;;6.20;48.69;99403.59;5054220;28;20025;-53
2022/03/12 03:37:39;;;;;;;16.48;8.70;;;;;;;6.28;48.74;99409.72;5058239;28;20052;-51
2022/03/12 03:40:05;;;;;;;17.42;7.45;;;;;;;6.29;49.38;99403.38;5056154;28;20039;-54
2022/03/12 03:42:30;;;;;;;18.67;8.77;;;;;;;6.25;50.02;99409.13;5051791;28;20024;-52
2022/03/12 03:45:02;;;;;;;15.77;9.70;;;;;;;6.26;50.02;99409.94;5054290;28;20029;-53
2022/03/12 03:47:28;;;;;;;14.00;7.65;;;;;;;6.28;50.76;99418.53;5057068;28;20112;-54
2022/03/12 03:49:53;;;;;;;13.20;7.43;;;;;;;6.28;51.07;99409.72;5057403;28;20080;-52
2022/03/12 03:52:19;;;;;;;14.85;8.18;;;;;;;6.30;51.52;99423.66;5047177;28;20045;-52
2022/03/12 03:54:44;;;;;;;15.40;7.97;;;;;;;6.26;51.67;99426.75;5052590;28;20032;-51
2022/03/12 03:57:13;;;;;;;13.50;8.25;;;;;;;6.32;51.88;99429.59;5044843;28;20497;-53
2022/03/12 03:59:38;;;;;;;16.42;8.25;;;;;;;6.33;52.82;99425.91;5056145;28;20475;-52
2022/03/12 04:02:04;;;;;;;14.55;8.02;;;;;;;6.29;53.20;99424.66;5052955;28;20032;-54
2022/03/12 04:04:31;;;;;;;16.65;8.90;;;;;;;6.34;53.79;99428.34;5049542;28;20112;-51
2022/03/12 04:06:58;;;;;;;16.23;7.80;;;;;;;6.35;54.07;99434.50;5057879;28;20029;-52
2022/03/12 04:09:24;;;;;;;11.45;8.00;;;;;;;6.43;54.09;99434.25;5049316;28;20083;-51
2022/03/12 04:11:49;;;;;;;14.32;8.10;;;;;;;6.38;54.89;99442.06;5051453;28;20489;-54
2022/03/12 04:14:15;;;;;;;15.77;8.32;;;;;;;6.40;55.60;99448.81;5052516;28;20037;-53
2022/03/12 04:16:43;;;;;;;15.10;8.85;;;;;;;6.48;56.70;99447.75;5047207;28;20029;-50
2022/03/12 04:19:08;;;;;;;17.00;9.02;;;;;;;6.47;57.33;99446.13;5048461;28;20025;-53
2022/03/12 04:21:34;;;;;;;13.27;8.00;;;;;;;6.49;58.17;99444.06;5053191;28;20037;-54
2022/03/12 04:23:59;;;;;;;12.82;8.15;;;;;;;6.55;58.83;99451.22;5052747;28;20451;-52
2022/03/12 04:26:25;;;;;;;11.75;7.13;;;;;;;6.56;59.39;99454.69;5047725;28;20132;-53
2022/03/12 04:28:50;;;;;;;14.30;8.48;;;;;;;6.52;60.01;99451.63;5054191;28;20387;-54
2022/03/12 04:31:17;;;;;;;18.08;8.38;;;;;;;6.58;60.25;99449.97;5049266;28;20391;-54
2022/03/12 04:33:43;;;;;;;18.00;8.18;;;;;;;6.61;60.79;99455.69;5055555;28;20040;-51
2022/03/12 04:36:09;;;;;;;15.18;8.73;;;;;;;6.59;61.11;99463.09;5053257;28;20024;-54
2022/03/12 04:38:35;;;;;;;12.38;7.53;;;;;;;6.55;61.61;99456.53;5053503;28;20040;-54
2022/03/12 04:41:00;;;;;;;15.50;8.27;;;;;;;6.46;61.58;99457.78;5057780;28;20033;-53
2022/03/12 04:43:28;;;;;;;19.25;8.27;;;;;;;6.37;62.29;99461.72;5052863;28;20029;-54
2022/03/12 04:45:54;;;;;;;13.02;8.45;;;;;;;6.27;62.10;99472.81;5054535;28;20060;-51
2022/03/12 04:48:23;;;;;;;16.70;8.98;;;;;;;6.21;62.15;99465.63;5057637;28;20048;-52
2022/03/12 04:50:49;;;;;;;17.48;8.65;;;;;;;6.07;62.79;99470.19;5056182;28;20021;-54
2022/03/12 04:53:15;;;;;;;16.70;8.50;;;;;;;6.05;63.00;99474.88;5049024;28;20072;-54
2022/03/12 04:55:41;;;;;;;15.27;9.10;;;;;;;5.98;61.38;99471.41;5052838;28;20025;-52
2022/03/12 04:58:07;;;;;;;15.48;9.00;;;;;;;5.90;60.95;99474.25;5057933;28;20071;-53
2022/03/12 05:00:36;;;;;;;16.58;9.05;;;;;;;5.83;61.70;99475.06;5051240;28;20049;-54
2022/03/12 05:03:08;;;;;;;17.40;9.38;;;;;;;5.74;61.38;99476.31;5053194;28;20067;-55
2022/03/12 05:05:33;;;;;;;17.38;8.90;;;;;;;5.66;61.34;99479.16;5053269;28;20033;-54
2022/03/12 05:07:59;;;;;;;20.48;9.60;;;;;;;5.53;59.43;99482.63;5062365;28;20036;-53
2022/03/12 05:10:27;;;;;;;17.52;9.30;;;;;;;5.49;56.40;99477.91;5056994;28;20535;-51
2022/03/12 05:12:58;;;;;;;17.80;9.40;;;;;;;5.27;55.68;99486.09;5055285;28;20566;-53
2022/03/12 05:15:23;;;;;;;19.15;9.88;;;;;;;5.16;55.70;99484.00;5051224;28;20032;-52
2022/03/12 05:17:51;;;;;;;22.00;9.07;;;;;;;5.16;56.01;99468.88;5054250;28;20032;-55
2022/03/12 05:20:23;;;;;;;17.65;9.23;;;;;;;5.00;57.13;99473.75;5091448;28;20486;-51
2022/03/12 05:22:49;;;;;;;16.88;8.88;;;;;;;5.07;56.34;99474.59;5055153;28;20051;-54
2022/03/12 05:25:16;;;;;;;20.00;9.70;;;;;;;5.07;57.61;99466.63;5055803;28;20585;-54
2022/03/12 05:27:41;;;;;;;24.33;9.57;;;;;;;5.11;56.77;99470.50;5050671;28;20045;-51
2022/03/12 05:30:08;;;;;;;16.48;9.25;;;;;;;5.06;59.86;99478.25;5054348;28;20110;-51
2022/03/12 05:32:33;;;;;;;19.35;9.15;;;;;;;5.14;57.52;99475.41;5050996;28;20025;-53
2022/03/12 05:34:58;;;;;;;16.45;9.00;;;;;;;5.14;59.18;99475.41;5059230;28;20047;-54
2022/03/12 05:37:24;;;;;;;20.05;9.25;;;;;;;5.12;58.38;99475.63;5051533;28;20033;-54
2022/03/12 05:39:51;;;;;;;19.73;9.85;;;;;;;5.05;59.41;99484.59;5053371;28;20024;-54
2022/03/12 05:42:18;;;;;;;18.58;10.05;;;;;;;4.97;58.03;99486.41;5049788;28;20033;-53
2022/03/12 05:44:44;;;;;;;17.23;9.75;;;;;;;4.93;58.32;99487.81;5059967;28;20032;-54
2022/03/12 05:47:10;;;;;;;17.90;9.18;;;;;;;4.91;58.68;99492.50;5056454;28;20068;-51
2022/03/12 05:49:36;;;;;;;15.90;8.85;;;;;;;5.07;58.31;99485.22;5048218;28;20052;-53
2022/03/12 05:52:01;;;;;;;16.65;9.63;;;;;;;5.07;57.89;99479.91;5049916;28;20052;-53
2022/03/12 05:54:27;;;;;;;18.60;9.65;;;;;;;5.02;58.37;99487.63;5056753;28;20047;-54
2022/03/12 05:56:53;;;;;;;14.65;9.27;;;;;;;5.01;57.78;99492.13;5057892;28;20029;-51
2022/03/12 05:59:18;;;;;;;20.85;10.05;;;;;;;4.93;59.04;99502.94;5066326;28;20024;-54
2022/03/12 06:01:44;;;;;;;16.50;9.45;;;;;;;4.91;58.42;99491.69;5057116;28;20098;-53
2022/03/12 06:04:11;;;;;;;17.77;9.88;;;;;;;4.81;58.09;99494.72;5053424;28;20021;-53
2022/03/12 06:06:36;;;;;;;15.68;9.10;;;;;;;4.88;57.52;99503.53;5087486;28;20017;-53
2022/03/12 06:09:07;;;;;;;16.13;9.50;;;;;;;4.92;58.24;99504.78;5054041;28;20029;-52
2022/03/12 06:11:37;;;;;;;16.48;9.30;;;;;;;4.94;56.76;99496.59;5061258;28;20028;-54
2022/03/12 06:14:03;;;;;;;20.73;10.40;;;;;;;4.94;57.23;99502.75;5055658;28;20083;-51
2022/03/12 06:16:29;;;;;;;24.95;9.65;;;;;;;4.97;56.13;99502.34;5055222;28;20028;-53
2022/03/12 06:18:54;;;;;;;17.48;9.40;;;;;;;5.00;56.10;99497.66;5057543;28;20246;-54
2022/03/12 06:21:20;;;;;;;18.40;9.57;;;;;;;5.10;55.57;99503.41;5068184;28;20055;-53
2022/03/12 06:23:45;;;;;;;18.58;9.82;;;;;;;5.05;55.23;99501.34;5049415;28;20037;-53
2022/03/12 06:26:14;;;;;;;19.25;9.38;;;;;;;5.11;55.26;99502.38;5054290;28;20029;-54
2022/03/12 06:28:40;;;;;;;16.90;9.48;;;;;;;5.11;55.47;99500.53;5049158;28;20037;-53
2022/03/12 06:31:07;;;;;;;19.35;9.05;;;;;;;5.17;55.35;99501.59;5051363;28;20108;-51
2022/03/12 06:33:34;;;;;;;15.07;9.55;;;;;;;5.23;55.42;99506.09;5063419;28;20036;-52
2022/03/12 06:36:01;;;;;;;17.83;9.60;;;;;;;5.22;55.73;99509.78;5071648;28;20036;-52
2022/03/12 06:38:26;;;;;;;22.17;10.15;;;;;;;5.23;55.74;99511.41;5059380;28;20040;-53
2022/03/12 06:40:58;;;;;;;17.48;9.85;;;;;;;5.19;55.55;99507.50;5053081;28;20028;-51
2022/03/12 06:43:28;;;;;;;19.67;10.27;;;;;;;5.21;55.73;99513.44;5061110;28;20025;-53
2022/03/12 06:45:53;;;;;;;22.92;9.70;;;;;;;5.17;55.63;99513.03;5060570;28;20078;-54
2022/03/12 06:48:19;;;;;;;19.05;9.70;;;;;;;5.39;55.43;99513.72;5063533;28;20090;-55
2022/03/12 06:50:45;;;;;;;25.58;9.85;;;;;;;5.41;55.53;99503.69;5062737;28;20028;-53
2022/03/12 06:53:10;;;;;;;15.48;8.75;;;;;;;5.49;55.37;99510.66;5060208;28;20052;-54
2022/03/12 06:55:36;;;;;;;18.88;9.52;;;;;;;5.50;55.25;99516.78;5052361;28;20390;-54
2022/03/12 06:58:01;;;;;;;23.33;10.20;;;;;;;5.52;55.78;99517.41;5050708;28;20115;-53
2022/03/12 07:00:28;;;;;;;18.50;9.70;;;;;;;5.73;55.19;99509.25;5057380;28;21022;-53
2022/03/12 07:02:55;;;;;;;24.30;9.20;;;;;;;5.96;55.51;99508.84;5053262;28;20025;-55
2022/03/12 07:05:21;;;;;;;18.08;10.00;;;;;;;6.07;54.39;99501.31;5055443;28;20446;-54
2022/03/12 07:07:47;;;;;;;21.48;9.75;;;;;;;6.34;54.32;99512.69;5048208;28;20486;-54
2022/03/12 07:10:12;;;;;;;21.65;9.68;;;;;;;6.36;54.35;99513.31;5048882;28;20033;-54
2022/03/12 07:12:38;;;;;;;17.80;9.00;;;;;;;6.37;56.71;99517.63;5050742;28;20486;-53
2022/03/12 07:15:05;;;;;;;17.92;9.90;;;;;;;6.37;55.55;99522.97;5051896;28;20068;-54
2022/03/12 07:17:30;;;;;;;17.92;10.18;;;;;;;6.46;55.77;99527.03;5055982;28;20033;-52
2022/03/12 07:19:56;;;;;;;20.70;12.27;;;;;;;6.61;56.07;99524.13;5053764;28;20040;-54
2022/03/12 07:22:21;;;;;;;17.23;10.18;;;;;;;6.79;55.15;99531.44;5050428;28;20029;-54
2022/03/12 07:24:47;;;;;;;23.23;10.93;;;;;;;6.93;55.07;99535.69;5051359;28;20447;-54
2022/03/12 07:27:12;;;;;;;18.77;10.75;;;;;;;6.94;55.14;99532.00;5051279;28;20033;-54
2022/03/12 07:29:37;;;;;;;20.20;10.38;;;;;;;6.91;56.17;99529.75;5049380;28;20052;-53
2022/03/12 07:32:03;;;;;;;19.92;10.10;;;;;;;6.66;56.69;99533.13;5052945;28;20416;-54
2022/03/12 07:34:29;;;;;;;18.35;10.02;;;;;;;6.96;56.09;99537.94;5057660;28;20387;-54
2022/03/12 07:36:54;;;;;;;19.40;10.65;;;;;;;7.27;55.08;99533.72;5053881;28;20364;-53
2022/03/12 07:39:20;;;;;;;21.63;12.57;;;;;;;7.21;55.43;99540.69;5047864;28;20087;-52
2022/03/12 07:41:46;;;;;;;17.65;9.90;;;;;;;7.70;57.09;99535.69;5054153;28;20344;-54
2022/03/12 07:44:11;;;;;;;24.35;10.32;;;;;;;8.05;54.20;99545.91;5053677;28;20124;-54
2022/03/12 07:46:36;;;;;;;20.10;10.77;;;;;;;7.88;54.74;99549.09;5049288;28;20033;-51
2022/03/12 07:49:03;;;;;;;20.88;10.23;;;;;;;7.62;56.00;99552.78;5057161;28;20025;-52
2022/03/12 07:51:29;;;;;;;24.17;11.98;;;;;;;7.84;55.65;99555.91;5053549;28;20037;-51
2022/03/12 07:53:55;;;;;;;20.70;11.00;;;;;;;7.82;55.87;99544.63;5060593;28;20185;-53
2022/03/12 07:56:20;;;;;;;21.50;10.20;;;;;;;8.13;55.85;99554.44;5047462;28;20476;-54
2022/03/12 07:58:46;;;;;;;16.60;9.93;;;;;;;8.66;54.29;99550.47;5051832;28;20446;-53
2022/03/12 08:01:11;;;;;;;21.80;9.70;;;;;;;8.92;53.59;99546.72;5048828;28;20029;-52
2022/03/12 08:03:37;;;;;;;20.60;10.48;;;;;;;9.72;51.56;99551.00;5059068;28;20032;-51
2022/03/12 08:06:04;;;;;;;22.67;10.60;;;;;;;10.78;49.17;99551.91;5047161;28;20060;-55
2022/03/12 08:08:30;;;;;;;21.80;11.65;;;;;;;11.36;48.11;99549.31;5050455;28;20395;-53
2022/03/12 08:13:43;;;;;;;27.23;11.77;;;;;;;12.88;45.63;99560.88;5051627;28;20384;-52
2022/03/12 08:16:09;;;;;;;23.70;13.25;;;;;;;13.41;44.77;99553.19;5059329;28;20020;-53
2022/03/12 08:18:34;;;;;;;21.38;10.98;;;;;;;13.35;46.65;99555.03;5057568;28;20035;-52
2022/03/12 08:21:00;;;;;;;17.95;9.88;;;;;;;11.28;54.67;99563.88;5062890;28;20024;-54
2022/03/12 08:23:25;;;;;;;23.70;10.55;;;;;;;12.22;52.56;99562.63;5057206;28;20043;-55
2022/03/12 08:25:51;;;;;;;25.65;10.27;;;;;;;12.72;51.40;99565.22;5066436;28;20325;-52
2022/03/12 08:28:17;;;;;;;22.42;10.40;;;;;;;11.76;53.67;99580.63;5060674;28;20036;-54
2022/03/12 08:30:43;;;;;;;23.63;11.75;;;;;;;10.80;56.91;99570.41;5059720;28;20400;-55
2022/03/12 08:33:09;;;;;;;27.83;11.48;;;;;;;10.60;57.88;99567.31;5056081;28;20021;-52
2022/03/12 08:35:34;;;;;;;25.25;10.68;;;;;;;10.90;56.84;99573.31;5054154;28;20025;-54
2022/03/12 08:37:59;;;;;;;24.35;10.75;;;;;;;11.52;55.62;99575.34;5054708;28;20039;-53
2022/03/12 08:40:25;;;;;;;25.30;11.60;;;;;;;11.13;55.97;99577.00;5062040;28;20033;-54
2022/03/12 08:42:52;;;;;;;24.60;10.55;;;;;;;12.92;52.07;99588.09;5050943;28;20033;-55
2022/03/12 08:45:18;;;;;;;29.20;12.07;;;;;;;13.81;48.71;99578.91;5051246;28;20356;-54
2022/03/12 08:47:43;;;;;;;24.88;12.45;;;;;;;12.70;51.75;99586.19;5054806;28;20490;-54
2022/03/12 08:50:09;;;;;;;25.98;11.82;;;;;;;13.64;49.69;99584.38;5058649;28;20028;-55
2022/03/12 08:52:36;;;;;;;22.90;11.60;;;;;;;13.24;49.93;99596.31;5080627;28;20048;-53
2022/03/12 08:55:02;;;;;;;28.70;12.02;;;;;;;12.40;52.83;99599.16;5054687;28;20247;-54
2022/03/12 08:57:28;;;;;;;29.92;12.52;;;;;;;12.97;51.16;99593.53;5055959;28;20029;-53
2022/03/12 08:59:53;;;;;;;32.00;11.88;;;;;;;13.19;50.64;99590.84;5052561;28;20359;-54
2022/03/12 09:02:20;;;;;;;25.58;11.25;;;;;;;13.63;49.09;99592.72;5054276;28;20029;-54
2022/03/12 09:04:46;;;;;;;24.98;10.98;;;;;;;13.19;50.57;99593.53;5059973;28;20021;-54
2022/03/12 09:07:11;;;;;;;21.75;11.32;;;;;;;12.65;51.25;99594.16;5054855;28;20525;-54
2022/03/12 09:09:37;;;;;;;20.85;11.30;;;;;;;12.79;51.09;99600.03;5055765;28;20482;-53
2022/03/12 09:12:03;;;;;;;24.92;11.52;;;;;;;11.02;55.85;99598.25;5049568;28;20058;-53
2022/03/12 09:14:29;;;;;;;22.23;10.15;;;;;;;11.59;54.27;99596.69;5038777;28;20246;-56
2022/03/12 09:16:55;;;;;;;26.80;11.98;;;;;;;11.98;53.49;99600.38;5049469;28;20163;-52
2022/03/12 09:19:20;;;;;;;23.02;10.90;;;;;;;12.32;51.99;99607.66;5060020;28;20085;-53
2022/03/12 09:21:46;;;;;;;21.98;10.60;;;;;;;12.53;51.88;99606.91;5052684;28;20043;-52
2022/03/12 09:24:11;;;;;;;21.02;10.82;;;;;;;12.47;53.09;99611.38;5056375;28;20417;-52
2022/03/12 09:26:37;;;;;;;20.77;9.88;;;;;;;12.85;50.11;99608.97;5050980;28;20029;-54
2022/03/12 09:29:03;;;;;;;21.25;10.23;;;;;;;11.31;54.92;99606.38;5051015;28;20033;-52
2022/03/12 09:31:28;;;;;;;19.67;10.18;;;;;;;12.22;53.10;99608.28;5049858;28;20120;-51
2022/03/12 09:33:54;;;;;;;18.38;9.15;;;;;;;12.01;52.66;99599.91;5050745;28;20463;-52
2022/03/12 09:36:19;;;;;;;18.23;10.57;;;;;;;11.35;55.68;99598.63;5055070;28;20036;-52
2022/03/12 09:38:45;;;;;;;18.33;9.02;;;;;;;12.12;53.82;99603.56;5059273;28;20032;-54
2022/03/12 09:41:11;;;;;;;20.38;9.18;;;;;;;12.31;52.82;99604.16;5059023;28;20532;-52
2022/03/12 09:43:36;;;;;;;18.48;9.20;;;;;;;12.11;53.12;99599.25;5056711;28;20517;-51
2022/03/12 09:46:02;;;;;;;19.85;9.90;;;;;;;11.53;54.73;99605.69;5052467;28;20082;-55
2022/03/12 09:48:27;;;;;;;18.45;9.63;;;;;;;11.68;54.77;99611.34;5049314;28;20054;-53
2022/03/12 09:50:53;;;;;;;15.68;8.65;;;;;;;12.10;53.73;99613.72;5048983;28;20087;-53
2022/03/12 09:53:18;;;;;;;18.63;8.88;;;;;;;11.71;54.86;99610.88;5034558;28;20047;-55
2022/03/12 09:55:44;;;;;;;17.23;8.73;;;;;;;11.56;55.71;99615.97;5054568;28;20028;-52
2022/03/12 09:58:09;;;;;;;15.13;8.63;;;;;;;11.29;55.91;99610.34;5054831;28;20025;-53
2022/03/12 10:00:34;;;;;;;17.88;9.07;;;;;;;11.60;55.24;99614.41;5052210;28;20029;-55
2022/03/12 10:03:00;;;;;;;16.83;9.45;;;;;;;11.96;54.41;99612.44;5050547;28;20055;-54
2022/03/12 10:05:27;;;;;;;17.20;8.48;;;;;;;11.80;54.83;99609.41;5056987;28;20516;-55
2022/03/12 10:07:53;;;;;;;16.13;8.48;;;;;;;11.60;55.17;99603.69;5053323;28;20799;-54
2022/03/12 10:10:21;;;;;;;13.30;7.72;;;;;;;11.18;57.13;99599.41;5081615;28;20083;-53
2022/03/12 10:12:47;;;;;;;14.63;8.50;;;;;;;11.56;56.00;99591.81;5056535;28;20481;-54
2022/03/12 10:15:14;;;;;;;14.45;8.52;;;;;;;11.60;55.24;99593.75;5052423;28;20132;-55
2022/03/12 10:17:40;;;;;;;14.98;7.53;;;;;;;11.67;55.28;99599.00;5057766;28;20032;-52
2022/03/12 10:20:08;;;;;;;13.70;7.60;;;;;;;11.30;56.34;99593.97;5051479;28;20029;-53
2022/03/12 10:22:33;;;;;;;14.10;7.97;;;;;;;11.08;56.05;99584.94;5055962;28;20020;-54
2022/03/12 10:24:59;;;;;;;13.23;7.55;;;;;;;11.91;55.21;99599.72;5052541;28;20490;-54
2022/03/12 10:27:24;;;;;;;12.93;7.40;;;;;;;12.09;54.19;99591.44;5053262;28;20036;-56
2022/03/12 10:29:50;;;;;;;14.98;7.47;;;;;;;12.68;52.49;99577.56;5061773;28;20454;-55
2022/03/12 10:32:32;;;;;;;17.25;8.20;;;;;;;12.20;53.67;99588.91;5049355;28;20033;-55
2022/03/12 10:34:59;;;;;;;10.95;6.20;;;;;;;11.57;55.28;99586.19;5035137;28;20478;-55
2022/03/12 10:37:26;;;;;;;16.33;7.75;;;;;;;11.66;56.00;99583.94;5054024;28;20421;-54
2022/03/12 10:40:07;;;;;;;13.38;6.80;;;;;;;11.54;56.01;99588.53;5056456;28;20047;-51
2022/03/12 10:42:37;;;;;;;12.25;6.93;;;;;;;12.41;54.01;99590.88;5058467;28;20051;-55
2022/03/12 10:45:14;;;;;;;14.52;6.65;;;;;;;11.82;55.59;99596.56;5051261;28;20041;-53
2022/03/12 10:47:59;;;;;;;10.43;6.50;;;;;;;12.22;53.88;99592.16;5046358;28;20037;-54
2022/03/12 10:50:35;;;;;;;10.95;6.70;;;;;;;13.19;51.43;99592.75;5063967;28;20028;-54
2022/03/12 10:53:05;;;;;;;11.05;6.65;;;;;;;13.44;50.63;99595.75;5048973;28;20138;-52
2022/03/12 10:55:33;;;;;;;;;;;;;;;12.89;51.71;99605.53;5054455;28;20349;-53
2022/03/12 10:58:05;;;;;;;10.27;5.85;;;;;;;11.86;53.69;99605.81;5059638;28;20230;-54
2022/03/12 11:00:38;;;;;;;9.88;5.90;;;;;;;12.24;53.73;99598.94;5047728;28;20406;-54
2022/03/12 11:03:05;;;;;;;10.93;5.90;;;;;;;11.55;55.44;99600.91;5048728;28;20422;-55
2022/03/12 11:05:35;;;;;;;10.95;6.53;;;;;;;12.27;53.47;99601.13;5050306;28;20032;-53
2022/03/12 11:08:20;;;;;;;11.80;6.82;;;;;;;12.66;52.58;99597.69;5055662;28;20378;-54
2022/03/12 11:10:58;;;;;;;10.55;6.13;;;;;;;11.76;55.39;99602.13;5055497;28;20071;-54
2022/03/12 11:13:40;;;;;;;8.73;5.82;;;;;;;12.45;54.20;99599.25;5058385;28;20083;-55
2022/03/12 11:16:28;;;;;;;11.30;6.05;;;;;;;11.94;54.78;99609.97;5054453;28;20383;-51
2022/03/12 11:18:53;;;;;;;12.98;5.53;;;;;;;13.10;52.03;99598.56;5054097;28;20037;-51
2022/03/12 11:21:37;;;;;;;8.80;5.93;;;;;;;12.83;52.00;99590.41;5057971;28;20548;-55
2022/03/12 11:24:05;;;;;;;9.68;6.00;;;;;;;12.00;54.46;99584.81;5052220;28;20062;-54
2022/03/12 11:26:31;;;;;;;8.93;5.47;;;;;;;11.98;54.17;99588.81;5051722;28;20736;-51
2022/03/12 11:28:58;;;;;;;13.43;8.00;;;;;;;11.08;47.07;99590.31;5055346;28;20040;-52
2022/03/12 11:31:49;;;;;;;16.58;8.80;;;;;;;11.31;46.69;99578.72;5050294;28;20040;-53